Time;durP1;ratioP1;P1;durP2;ratioP2;P2;SDS_P1;SDS_P2;PMS_P1;PMS_P2;Temp;Humidity;BMP_temperature;BMP_pressure;BME280_temperature;BME280_humidity;BME280_pressure;Samples;Min_cycle;Max_cycle;Signal;HPM_P1;HPM_P2
2022/06/01 00:00:20;;;;;;;7.50;3.30;;;14.30;99.90;;;;;;4978428;28;20230;-78
2022/06/01 00:02:46;;;;;;;4.47;2.73;;;14.30;99.90;;;;;;4996733;28;20170;-79
2022/06/01 00:05:12;;;;;;;4.07;3.10;;;14.20;99.90;;;;;;4995834;28;20163;-79
2022/06/01 00:07:38;;;;;;;2.93;2.43;;;14.10;99.90;;;;;;4999904;28;20581;-78
2022/06/01 00:10:04;;;;;;;3.40;2.83;;;14.10;99.90;;;;;;4980137;28;20702;-79
2022/06/01 00:12:31;;;;;;;4.88;3.47;;;14.00;99.90;;;;;;4994378;28;20269;-79
2022/06/01 00:14:57;;;;;;;4.45;3.50;;;14.00;99.90;;;;;;4978057;28;20175;-79
2022/06/01 00:17:24;;;;;;;3.90;2.53;;;13.90;99.90;;;;;;4995480;28;20167;-79
2022/06/01 00:19:50;;;;;;;3.38;3.08;;;13.90;99.90;;;;;;4994716;28;20313;-79
2022/06/01 00:22:17;;;;;;;5.72;3.15;;;13.80;99.90;;;;;;4994114;28;20191;-79
2022/06/01 00:24:44;;;;;;;3.85;2.95;;;13.80;99.90;;;;;;4995518;28;20635;-78
2022/06/01 00:27:11;;;;;;;4.97;2.95;;;13.80;99.90;;;;;;4994129;28;20202;-78
2022/06/01 00:29:38;;;;;;;4.22;3.83;;;13.70;99.90;;;;;;4977339;28;20290;-78
2022/06/01 00:32:05;;;;;;;3.40;3.10;;;13.70;99.90;;;;;;4995036;28;20572;-78
2022/06/01 00:34:31;;;;;;;3.78;3.08;;;13.70;99.90;;;;;;4994156;28;20183;-78
2022/06/01 00:36:57;;;;;;;3.10;2.65;;;13.70;99.90;;;;;;5010406;28;20570;-78
2022/06/01 00:39:23;;;;;;;5.13;2.73;;;13.70;99.90;;;;;;4994542;28;20256;-78
2022/06/01 00:41:49;;;;;;;6.13;2.40;;;13.60;99.90;;;;;;4993539;28;20198;-78
2022/06/01 00:44:15;;;;;;;4.63;1.95;;;13.60;99.90;;;;;;4995205;28;20223;-78
2022/06/01 00:46:41;;;;;;;2.90;2.30;;;13.50;99.90;;;;;;5015353;28;20213;-78
2022/06/01 00:49:17;;;;;;;3.23;2.03;;;13.50;99.90;;;;;;4994417;28;20175;-78
2022/06/01 00:51:44;;;;;;;3.67;1.95;;;13.50;99.90;;;;;;4994463;28;20234;-78
2022/06/01 00:54:13;;;;;;;2.97;1.50;;;13.40;99.90;;;;;;5009995;28;20174;-78
2022/06/01 00:56:49;;;;;;;2.40;2.15;;;13.40;99.90;;;;;;4994891;28;20167;-79
2022/06/01 00:59:21;;;;;;;3.00;1.70;;;13.40;99.90;;;;;;5009447;28;20212;-79
2022/06/01 01:01:48;;;;;;;3.65;1.80;;;13.40;99.90;;;;;;4994539;28;20187;-79
2022/06/01 01:04:15;;;;;;;4.47;1.40;;;13.30;99.90;;;;;;4993709;28;20167;-78
2022/06/01 01:06:43;;;;;;;4.18;1.60;;;13.30;99.90;;;;;;4977278;28;20535;-78
2022/06/01 01:09:10;;;;;;;2.38;1.65;;;13.30;99.90;;;;;;4993986;28;20175;-78
2022/06/01 01:11:46;;;;;;;2.30;1.70;;;13.20;99.90;;;;;;4993098;28;20193;-78
2022/06/01 01:14:14;;;;;;;2.15;1.75;;;13.20;99.90;;;;;;4993737;28;20632;-78
2022/06/01 01:16:40;;;;;;;2.70;1.45;;;13.20;99.90;;;;;;4992959;28;20186;-78
2022/06/01 01:19:16;;;;;;;1.90;1.42;;;13.10;99.90;;;;;;5009074;28;20194;-78
2022/06/01 01:21:57;;;;;;;4.72;1.67;;;13.10;99.90;;;;;;4994176;28;20281;-78
2022/06/01 01:24:41;;;;;;;1.90;1.40;;;13.00;99.90;;;;;;4995307;28;20183;-78
2022/06/01 01:27:07;;;;;;;3.30;1.60;;;13.00;99.90;;;;;;4994460;28;20163;-78
2022/06/01 01:29:36;;;;;;;2.93;1.20;;;13.00;99.90;;;;;;5009001;28;20297;-78
2022/06/01 01:32:05;;;;;;;1.70;1.20;;;12.90;99.90;;;;;;4994244;28;20597;-78
2022/06/01 01:34:32;;;;;;;2.13;1.80;;;12.90;99.90;;;;;;5009223;28;20211;-79
2022/06/01 01:37:03;;;;;;;2.25;1.05;;;12.90;99.90;;;;;;4993039;28;20211;-77
2022/06/01 01:39:31;;;;;;;1.80;1.30;;;12.80;99.90;;;;;;4993634;28;20183;-78
2022/06/01 01:41:58;;;;;;;2.03;1.20;;;12.80;99.90;;;;;;5008911;28;20194;-78
2022/06/01 01:44:32;;;;;;;5.95;1.40;;;12.80;99.90;;;;;;4994063;28;20263;-78
2022/06/01 01:46:58;;;;;;;3.28;1.05;;;12.80;99.90;;;;;;4992808;28;20536;-78
2022/06/01 01:49:27;;;;;;;1.90;1.27;;;12.70;99.90;;;;;;4993531;28;20174;-78
2022/06/01 01:51:58;;;;;;;4.95;1.33;;;12.70;99.90;;;;;;4993234;28;20568;-77
2022/06/01 01:54:49;;;;;;;3.60;1.00;;;12.70;99.90;;;;;;5012212;28;20198;-78
2022/06/01 01:57:38;;;;;;;2.90;1.27;;;12.70;99.90;;;;;;4995762;28;20171;-78
2022/06/01 02:00:10;;;;;;;2.55;1.20;;;12.70;99.90;;;;;;5012678;28;20198;-78
2022/06/01 02:03:04;;;;;;;2.08;1.20;;;12.70;99.90;;;;;;4997155;28;20163;-78
2022/06/01 02:08:41;;;;;;;2.20;1.60;;;12.60;99.90;;;;;;4993538;28;20175;-78
2022/06/01 02:14:25;;;;;;;3.33;1.58;;;12.60;99.90;;;;;;4993393;28;20179;-78
2022/06/01 02:17:07;;;;;;;2.80;1.23;;;12.60;99.90;;;;;;4992465;28;20171;-78
2022/06/01 02:19:42;;;;;;;3.25;1.48;;;12.50;99.90;;;;;;4990403;28;20547;-78
2022/06/01 02:22:10;;;;;;;2.60;1.13;;;12.50;99.90;;;;;;4993115;28;20190;-78
2022/06/01 02:24:37;;;;;;;1.65;1.17;;;12.50;99.90;;;;;;4993453;28;20175;-78
2022/06/01 02:27:03;;;;;;;2.83;1.58;;;12.50;99.90;;;;;;4992045;28;20175;-78
2022/06/01 02:29:34;;;;;;;3.10;1.80;;;12.40;99.90;;;;;;5007663;28;20627;-79
2022/06/01 02:32:02;;;;;;;2.60;1.67;;;12.40;99.90;;;;;;5008050;28;20190;-78
2022/06/01 02:34:29;;;;;;;3.60;2.10;;;12.40;99.90;;;;;;4992930;28;20178;-79
2022/06/01 02:36:56;;;;;;;4.20;1.63;;;12.40;99.90;;;;;;4996979;28;20182;-78
2022/06/01 02:39:25;;;;;;;2.25;1.20;;;12.40;99.90;;;;;;4992693;28;20253;-79
2022/06/01 02:44:35;;;;;;;3.00;1.60;;;12.30;99.90;;;;;;4992826;28;20539;-78
2022/06/01 02:47:00;;;;;;;4.70;1.53;;;12.30;99.90;;;;;;4992795;28;20170;-78
2022/06/01 02:49:26;;;;;;;2.23;1.33;;;12.30;99.90;;;;;;4991222;28;20171;-78
2022/06/01 02:51:52;;;;;;;3.73;1.90;;;12.30;99.90;;;;;;4991050;28;20645;-78
2022/06/01 02:54:18;;;;;;;3.20;1.47;;;12.30;99.90;;;;;;4991600;28;20170;-79
2022/06/01 02:56:43;;;;;;;5.80;2.40;;;12.20;99.90;;;;;;4992728;28;20159;-79
2022/06/01 02:59:09;;;;;;;6.47;2.37;;;12.20;99.90;;;;;;4992266;28;20226;-79
2022/06/01 03:01:36;;;;;;;4.90;2.57;;;12.20;99.90;;;;;;4992222;28;20211;-78
2022/06/01 03:04:03;;;;;;;5.55;2.58;;;12.20;99.90;;;;;;5007743;28;20171;-78
2022/06/01 03:06:29;;;;;;;4.57;2.92;;;12.10;99.90;;;;;;4992506;28;20167;-78
2022/06/01 03:08:55;;;;;;;6.93;2.97;;;12.10;99.90;;;;;;4991411;28;20225;-79
2022/06/01 03:11:20;;;;;;;4.50;2.27;;;12.10;99.90;;;;;;4992250;28;20557;-79
2022/06/01 03:13:46;;;;;;;3.53;1.90;;;12.10;99.90;;;;;;5008191;28;20197;-79
2022/06/01 03:16:12;;;;;;;3.60;2.00;;;12.10;99.90;;;;;;5012023;28;20170;-79
2022/06/01 03:18:37;;;;;;;3.73;1.90;;;12.10;99.90;;;;;;4977897;28;20178;-79
2022/06/01 03:21:03;;;;;;;3.93;2.50;;;12.10;99.90;;;;;;5014619;28;20198;-79
2022/06/01 03:23:29;;;;;;;4.53;2.00;;;12.10;99.90;;;;;;5010724;28;20166;-78
2022/06/01 03:25:55;;;;;;;2.92;1.92;;;12.10;99.90;;;;;;5003648;28;20171;-79
2022/06/01 03:28:21;;;;;;;2.90;1.65;;;12.10;99.90;;;;;;5008837;28;20166;-78
2022/06/01 03:30:48;;;;;;;2.93;1.97;;;12.10;99.90;;;;;;5014505;28;20262;-78
2022/06/01 03:33:14;;;;;;;3.05;1.75;;;12.10;99.90;;;;;;4993935;28;20301;-78
2022/06/01 03:35:40;;;;;;;2.30;1.40;;;12.10;99.90;;;;;;5011923;28;20533;-78
2022/06/01 03:38:07;;;;;;;5.63;1.80;;;12.10;99.90;;;;;;4994247;28;20185;-78
2022/06/01 03:40:34;;;;;;;1.92;1.25;;;12.10;99.90;;;;;;5010980;28;20680;-78
2022/06/01 03:43:01;;;;;;;3.17;1.92;;;12.10;99.90;;;;;;5011389;28;20190;-78
2022/06/01 03:48:14;;;;;;;5.05;1.95;;;12.20;99.90;;;;;;5011818;28;20196;-79
2022/06/01 03:50:41;;;;;;;3.47;1.55;;;12.20;99.90;;;;;;5014439;28;20213;-78
2022/06/01 03:53:07;;;;;;;3.05;1.75;;;12.20;99.90;;;;;;5026945;28;20237;-79
2022/06/01 03:55:34;;;;;;;3.27;1.90;;;12.20;99.90;;;;;;5026937;28;20174;-78
2022/06/01 03:58:01;;;;;;;3.22;1.30;;;12.20;99.90;;;;;;5011472;28;20573;-78
2022/06/01 04:00:27;;;;;;;3.20;1.15;;;12.20;99.90;;;;;;5010394;28;20206;-78
2022/06/01 04:02:53;;;;;;;2.72;1.50;;;12.20;99.90;;;;;;4993859;28;20224;-78
2022/06/01 04:05:21;;;;;;;3.00;1.67;;;12.30;99.90;;;;;;5010549;28;20796;-79
2022/06/01 04:07:47;;;;;;;3.10;1.77;;;12.30;99.90;;;;;;5026770;28;20163;-79
2022/06/01 04:10:12;;;;;;;2.50;1.30;;;12.30;99.90;;;;;;5009583;28;20241;-79
2022/06/01 04:12:39;;;;;;;2.10;1.33;;;12.30;99.90;;;;;;5011866;28;20531;-78
2022/06/01 04:15:06;;;;;;;2.60;1.52;;;12.30;99.90;;;;;;5026609;28;20177;-80
2022/06/01 04:17:32;;;;;;;3.35;1.50;;;12.30;99.90;;;;;;5011798;28;20631;-80
2022/06/01 04:19:58;;;;;;;3.15;1.90;;;12.40;99.90;;;;;;5009668;28;20739;-79
2022/06/01 04:22:24;;;;;;;2.00;1.40;;;12.40;99.90;;;;;;5010058;28;20183;-79
2022/06/01 04:24:50;;;;;;;6.60;1.73;;;12.40;99.90;;;;;;5010268;28;20224;-77
2022/06/01 04:27:16;;;;;;;3.17;1.60;;;12.50;99.90;;;;;;5031367;28;20197;-78
2022/06/01 04:29:42;;;;;;;4.20;1.35;;;12.50;99.90;;;;;;5011873;28;20183;-78
2022/06/01 04:32:11;;;;;;;2.17;1.30;;;12.60;99.90;;;;;;5010152;28;20244;-78
2022/06/01 04:34:37;;;;;;;2.22;1.50;;;12.60;99.90;;;;;;4993781;28;20595;-78
2022/06/01 04:37:04;;;;;;;4.33;1.83;;;12.60;99.90;;;;;;4993479;28;20623;-78
2022/06/01 04:39:29;;;;;;;2.33;1.75;;;12.70;99.90;;;;;;5010349;28;20681;-78
2022/06/01 04:41:55;;;;;;;4.93;1.70;;;12.70;99.90;;;;;;5013370;28;20277;-78
2022/06/01 04:44:21;;;;;;;2.70;1.70;;;12.80;99.90;;;;;;5013552;28;20577;-78
2022/06/01 04:46:47;;;;;;;6.17;2.27;;;12.80;99.90;;;;;;5013293;28;20591;-78
2022/06/01 04:49:13;;;;;;;6.80;2.00;;;12.80;99.90;;;;;;5013096;28;20228;-78
2022/06/01 04:51:39;;;;;;;2.40;1.87;;;12.90;99.90;;;;;;5029433;28;20206;-78
2022/06/01 04:54:07;;;;;;;2.77;1.97;;;13.00;99.90;;;;;;4996993;28;20174;-78
2022/06/01 04:56:33;;;;;;;5.40;2.83;;;13.10;99.90;;;;;;4980853;28;21144;-79
2022/06/01 04:58:59;;;;;;;5.00;1.85;;;13.30;99.90;;;;;;5029773;28;20171;-79
2022/06/01 05:01:26;;;;;;;2.28;1.70;;;13.30;99.90;;;;;;4996104;28;20202;-78
2022/06/01 05:03:51;;;;;;;4.22;2.17;;;13.40;99.90;;;;;;5013202;28;20167;-79
2022/06/01 05:06:17;;;;;;;5.03;2.20;;;13.50;99.90;;;;;;5001607;28;20615;-79
2022/06/01 05:08:43;;;;;;;3.83;2.07;;;13.60;99.90;;;;;;5029508;28;20162;-78
2022/06/01 05:11:08;;;;;;;5.30;2.53;;;13.60;99.90;;;;;;5012300;28;20190;-78
2022/06/01 05:13:34;;;;;;;4.33;2.23;;;13.70;99.90;;;;;;5014434;28;20641;-78
2022/06/01 05:16:01;;;;;;;3.00;2.30;;;13.80;99.90;;;;;;5013238;28;20178;-80
2022/06/01 05:18:27;;;;;;;3.10;2.20;;;13.90;99.90;;;;;;4996662;28;20578;-79
2022/06/01 05:20:54;;;;;;;4.55;2.60;;;13.90;99.90;;;;;;5028680;28;20213;-80
2022/06/01 05:23:21;;;;;;;3.92;2.17;;;14.00;99.90;;;;;;5013229;28;20175;-81
2022/06/01 05:25:48;;;;;;;3.67;2.55;;;14.10;99.90;;;;;;5030194;28;20631;-81
2022/06/01 05:28:21;;;;;;;4.05;2.80;;;14.10;99.90;;;;;;5012616;28;20180;-80
2022/06/01 05:30:47;;;;;;;3.10;1.67;;;14.20;99.90;;;;;;5011915;28;20338;-80
2022/06/01 05:33:13;;;;;;;4.43;2.73;;;14.20;99.90;;;;;;5012714;28;20174;-80
2022/06/01 05:35:39;;;;;;;5.38;2.72;;;14.30;99.90;;;;;;5012662;28;20584;-81
2022/06/01 05:38:05;;;;;;;2.90;1.98;;;14.40;99.90;;;;;;5012673;28;20270;-80
2022/06/01 05:40:31;;;;;;;2.72;1.83;;;14.40;99.90;;;;;;4995520;28;20206;-80
2022/06/01 05:42:58;;;;;;;3.80;1.77;;;14.50;99.90;;;;;;5006188;28;20182;-80
2022/06/01 05:45:24;;;;;;;5.10;1.90;;;14.60;99.90;;;;;;5012551;28;20178;-80
2022/06/01 05:47:50;;;;;;;3.25;1.85;;;14.80;99.90;;;;;;5012423;28;20273;-80
2022/06/01 05:50:16;;;;;;;3.87;2.07;;;15.00;99.90;;;;;;4952075;28;20270;-80
2022/06/01 05:52:42;;;;;;;3.43;1.73;;;15.50;99.90;;;;;;4992554;28;20589;-80
2022/06/01 05:55:09;;;;;;;2.40;1.20;;;16.30;99.90;;;;;;4993453;28;20574;-77
2022/06/01 05:57:35;;;;;;;2.03;1.17;;;17.40;99.90;;;;;;4993909;28;20182;-77
2022/06/01 06:00:05;;;;;;;2.47;1.03;;;18.60;99.90;;;;;;4991691;28;20980;-78
2022/06/01 06:02:38;;;;;;;2.07;1.30;;;19.70;99.90;;;;;;4992520;28;20586;-78
2022/06/01 06:06:12;;;;;;;3.67;1.30;;;21.00;99.90;;;;;;4991907;28;20677;-78
2022/06/01 06:07:52;;;;;;;3.70;1.10;;;22.10;99.90;;;;;;4992481;28;21154;-79
2022/06/01 06:10:18;;;;;;;3.63;1.10;;;23.30;99.90;;;;;;4991817;28;20577;-78
2022/06/01 06:12:44;;;;;;;1.80;0.90;;;24.30;99.90;;;;;;4991884;28;20172;-78
2022/06/01 06:15:10;;;;;;;3.20;1.00;;;25.30;99.90;;;;;;4976008;28;21124;-79
2022/06/01 06:17:35;;;;;;;3.50;1.00;;;26.20;99.90;;;;;;5008024;28;20922;-79
2022/06/01 06:20:02;;;;;;;2.20;0.97;;;27.00;99.90;;;;;;4993848;28;20685;-80
2022/06/01 06:22:28;;;;;;;2.13;1.20;;;27.70;99.90;;;;;;4991677;28;20245;-77
2022/06/01 06:24:53;;;;;;;1.63;0.87;;;28.40;99.90;;;;;;4992766;28;20566;-77
2022/06/01 06:27:19;;;;;;;1.80;0.90;;;29.00;99.90;;;;;;4975541;28;20178;-77
2022/06/01 06:29:45;;;;;;;3.63;1.10;;;29.60;99.90;;;;;;4990768;28;20266;-76
2022/06/01 06:32:11;;;;;;;2.50;0.80;;;30.10;99.90;;;;;;4991328;28;20195;-76
2022/06/01 06:34:38;;;;;;;2.60;1.07;;;30.70;98.00;;;;;;4991332;28;20179;-76
2022/06/01 06:37:04;;;;;;;2.13;0.80;;;31.10;95.70;;;;;;4991282;28;20177;-77
2022/06/01 06:39:30;;;;;;;3.80;1.00;;;31.40;94.30;;;;;;4991267;28;20916;-76
2022/06/01 06:41:56;;;;;;;3.57;1.10;;;31.90;93.30;;;;;;4992542;28;20598;-76
2022/06/01 06:44:26;;;;;;;2.23;1.17;;;32.30;92.00;;;;;;5007661;28;20563;-76
2022/06/01 06:46:52;;;;;;;2.90;1.10;;;32.60;90.70;;;;;;4992689;28;20622;-76
2022/06/01 06:49:17;;;;;;;2.67;0.90;;;33.10;89.20;;;;;;5007040;28;20569;-77
2022/06/01 06:51:43;;;;;;;2.40;1.00;;;33.40;86.60;;;;;;4991732;28;20619;-77
2022/06/01 06:54:10;;;;;;;2.37;0.90;;;33.70;85.10;;;;;;4995113;28;20187;-76
2022/06/01 06:56:36;;;;;;;2.33;0.80;;;33.90;82.10;;;;;;5007118;28;20260;-78
2022/06/01 06:59:03;;;;;;;5.43;1.00;;;34.10;79.80;;;;;;5007008;28;20641;-77
2022/06/01 07:01:29;;;;;;;2.27;0.80;;;34.30;77.40;;;;;;4989945;28;20287;-77
2022/06/01 07:03:55;;;;;;;2.77;0.73;;;34.30;74.70;;;;;;4992029;28;20570;-77
2022/06/01 07:06:21;;;;;;;1.97;0.87;;;34.10;71.80;;;;;;4992214;28;20560;-76
2022/06/01 07:08:52;;;;;;;2.57;0.63;;;34.00;70.30;;;;;;4991874;28;20173;-78
2022/06/01 07:11:19;;;;;;;1.60;0.67;;;33.70;68.10;;;;;;4991576;28;20620;-76
2022/06/01 07:13:47;;;;;;;2.37;0.80;;;33.30;66.50;;;;;;4991044;28;20706;-80
2022/06/01 07:16:24;;;;;;;1.60;0.70;;;32.70;62.90;;;;;;5008227;28;20574;-77
2022/06/01 07:18:51;;;;;;;3.83;1.13;;;32.20;62.50;;;;;;4991117;28;20581;-76
2022/06/01 07:21:19;;;;;;;1.90;0.63;;;31.60;62.80;;;;;;4991519;28;20980;-77
2022/06/01 07:23:45;;;;;;;2.27;0.77;;;31.10;62.00;;;;;;5006671;28;20893;-76
2022/06/01 07:26:25;;;;;;;1.60;0.60;;;30.60;61.40;;;;;;4991917;28;20567;-75
2022/06/01 07:28:51;;;;;;;2.50;0.90;;;30.20;62.00;;;;;;4992272;28;21136;-76
2022/06/01 07:31:18;;;;;;;1.73;0.67;;;29.80;56.80;;;;;;4991491;28;20195;-76
2022/06/01 07:33:44;;;;;;;1.73;0.90;;;29.70;59.70;;;;;;4994943;28;20579;-79
2022/06/01 07:36:12;;;;;;;2.53;0.90;;;29.70;61.40;;;;;;4992205;28;20657;-76
2022/06/01 07:44:24;;;;;;;2.77;0.60;;;29.10;60.90;;;;;;4990819;28;20581;-78
2022/06/01 07:46:50;;;;;;;1.70;0.60;;;29.30;64.00;;;;;;4992184;28;20918;-77
2022/06/01 07:49:17;;;;;;;2.43;0.70;;;29.60;64.90;;;;;;4991996;28;20186;-76
2022/06/01 07:51:43;;;;;;;3.50;0.80;;;29.80;64.10;;;;;;4992157;28;20675;-78
2022/06/01 07:54:10;;;;;;;2.20;0.80;;;30.00;63.70;;;;;;4991722;28;20728;-79
2022/06/01 07:56:36;;;;;;;2.37;0.60;;;29.90;57.20;;;;;;4992304;28;20179;-77
2022/06/01 07:59:05;;;;;;;2.50;0.80;;;30.00;60.20;;;;;;4991730;28;20632;-77
2022/06/01 08:01:34;;;;;;;3.50;0.70;;;30.20;60.60;;;;;;4990033;28;20659;-77
2022/06/01 08:04:03;;;;;;;2.27;0.80;;;30.10;59.70;;;;;;5006588;28;20930;-77
2022/06/01 08:06:29;;;;;;;2.10;0.70;;;30.10;59.70;;;;;;4991359;28;20570;-75
2022/06/01 08:08:55;;;;;;;4.23;0.80;;;30.30;60.50;;;;;;4991880;28;20558;-77
2022/06/01 08:13:06;;;;;;;3.73;0.77;;;30.80;61.70;;;;;;4994287;28;20709;-77
2022/06/01 08:14:09;;;;;;;3.10;0.90;;;31.40;62.40;;;;;;4991914;28;20584;-76
2022/06/01 08:16:35;;;;;;;1.60;0.60;;;32.10;63.70;;;;;;4997031;28;20568;-75
2022/06/01 08:19:01;;;;;;;1.80;0.60;;;32.80;62.80;;;;;;4995500;28;20613;-76
2022/06/01 08:21:27;;;;;;;2.80;0.70;;;33.40;60.90;;;;;;4992988;28;20996;-77
2022/06/01 08:23:52;;;;;;;1.80;0.60;;;33.50;59.30;;;;;;4993308;28;20581;-77
2022/06/01 08:26:18;;;;;;;3.53;0.63;;;33.70;58.00;;;;;;4982454;28;20181;-77
2022/06/01 08:28:44;;;;;;;1.83;0.87;;;33.80;57.20;;;;;;4988189;28;20166;-76
2022/06/01 08:31:10;;;;;;;2.80;1.07;;;34.10;56.90;;;;;;4983640;28;20206;-75
2022/06/01 08:33:35;;;;;;;4.20;0.90;;;34.40;56.20;;;;;;4993418;28;20182;-77
2022/06/01 08:36:01;;;;;;;2.50;0.80;;;34.80;56.30;;;;;;4995157;28;20604;-76
2022/06/01 08:38:27;;;;;;;3.50;0.70;;;35.00;54.90;;;;;;4988499;28;20197;-76
2022/06/01 08:41:08;;;;;;;3.97;0.70;;;35.00;53.10;;;;;;5002791;28;20693;-76
2022/06/01 08:43:44;;;;;;;2.20;0.80;;;34.60;51.40;;;;;;4994014;28;20182;-76
2022/06/01 08:46:13;;;;;;;3.23;0.80;;;34.00;50.30;;;;;;5003149;28;20582;-76
2022/06/01 08:48:46;;;;;;;2.57;0.90;;;33.50;51.20;;;;;;4993567;28;20587;-76
2022/06/01 08:51:12;;;;;;;2.10;0.80;;;33.30;51.90;;;;;;4987806;28;20641;-76
2022/06/01 08:53:38;;;;;;;2.20;0.70;;;33.40;52.20;;;;;;4991977;28;21249;-76
2022/06/01 08:56:13;;;;;;;1.60;0.60;;;33.40;51.90;;;;;;5009670;28;20629;-77
2022/06/01 08:59:02;;;;;;;3.60;0.60;;;33.30;50.90;;;;;;4993558;28;21145;-78
2022/06/01 09:01:37;;;;;;;2.10;0.80;;;33.40;51.20;;;;;;4989357;28;20730;-75
2022/06/01 09:04:05;;;;;;;3.50;0.80;;;33.50;51.20;;;;;;4990213;28;20578;-75
2022/06/01 09:06:37;;;;;;;2.23;0.70;;;33.80;52.10;;;;;;4974916;28;21042;-74
2022/06/01 09:09:13;;;;;;;1.50;0.60;;;34.20;51.60;;;;;;4974935;28;20685;-76
2022/06/01 09:11:43;;;;;;;1.50;0.70;;;34.70;52.30;;;;;;4974336;28;21395;-76
2022/06/01 09:14:14;;;;;;;2.00;0.60;;;35.30;52.50;;;;;;4990101;28;20658;-77
2022/06/01 09:16:46;;;;;;;1.83;0.70;;;35.80;51.80;;;;;;4989655;28;20579;-77
2022/06/01 09:19:25;;;;;;;2.90;0.77;;;36.20;50.90;;;;;;4989183;28;20615;-78
2022/06/01 09:24:55;;;;;;;1.87;0.90;;;35.60;46.60;;;;;;4985752;28;20691;-77
2022/06/01 09:27:45;;;;;;;2.47;1.13;;;35.10;47.40;;;;;;4991440;28;21235;-77
2022/06/01 09:30:25;;;;;;;3.47;1.40;;;34.90;47.40;;;;;;4991856;28;20243;-77
2022/06/01 09:33:15;;;;;;;1.90;0.80;;;34.90;47.40;;;;;;5009106;28;20588;-77
2022/06/01 09:35:55;;;;;;;2.27;0.67;;;35.10;48.10;;;;;;4992774;28;20573;-77
2022/06/01 09:38:34;;;;;;;3.00;0.80;;;34.90;47.30;;;;;;4994066;28;20619;-76
2022/06/01 09:41:22;;;;;;;2.00;0.90;;;34.50;46.70;;;;;;4992929;28;20612;-77
2022/06/01 09:43:54;;;;;;;3.50;1.53;;;34.00;46.20;;;;;;4992875;28;20688;-76
2022/06/01 09:46:34;;;;;;;2.80;0.80;;;33.40;46.20;;;;;;4994493;28;20566;-77
2022/06/01 09:49:09;;;;;;;1.90;0.80;;;32.80;46.00;;;;;;4991456;28;20648;-77
2022/06/01 09:51:39;;;;;;;1.67;0.60;;;32.50;47.10;;;;;;4991300;28;20661;-77
2022/06/01 09:54:24;;;;;;;2.10;0.90;;;32.00;46.10;;;;;;4992539;28;20583;-79
2022/06/01 09:56:50;;;;;;;2.73;0.80;;;31.40;45.80;;;;;;4979377;28;20598;-77
2022/06/01 10:08:21;;;;;;;1.73;0.80;;;28.40;46.90;;;;;;4997481;28;20574;-81
2022/06/01 10:11:08;;;;;;;2.17;0.70;;;27.90;48.00;;;;;;4963240;28;20990;-82
2022/06/01 10:13:37;;;;;;;3.70;0.80;;;27.50;48.40;;;;;;5012171;23;20649;-78
2022/06/01 10:17:02;;;;;;;1.93;0.70;;;27.20;48.80;;;;;;5020812;28;20570;-78
2022/06/01 10:19:31;;;;;;;2.13;1.03;;;27.00;49.00;;;;;;4975149;28;20584;-75
2022/06/01 10:22:14;;;;;;;3.40;0.67;;;26.90;49.40;;;;;;4980901;28;20589;-78
2022/06/01 10:24:54;;;;;;;3.00;1.20;;;26.60;49.00;;;;;;5012283;28;20605;-76
2022/06/01 10:27:24;;;;;;;1.80;0.93;;;26.30;49.10;;;;;;5010257;28;20878;-76
2022/06/01 10:30:06;;;;;;;2.90;1.20;;;25.90;49.10;;;;;;5002482;28;20671;-76
2022/06/01 10:32:55;;;;;;;2.73;1.73;;;25.50;49.50;;;;;;5006883;28;20589;-76
2022/06/01 10:35:46;;;;;;;2.67;1.43;;;25.20;50.70;;;;;;4984688;28;21222;-76
2022/06/01 10:38:41;;;;;;;2.43;0.87;;;25.20;51.10;;;;;;4998815;28;20584;-76
2022/06/01 10:41:20;;;;;;;2.00;0.77;;;25.60;52.50;;;;;;4998351;28;20581;-76
2022/06/01 10:44:10;;;;;;;3.63;1.77;;;26.30;53.10;;;;;;4992458;28;20601;-75
2022/06/01 10:46:41;;;;;;;7.60;1.70;;;27.10;53.40;;;;;;4993400;28;20605;-76
2022/06/01 10:49:22;;;;;;;2.43;1.83;;;27.70;53.00;;;;;;5011235;28;21167;-78
2022/06/01 10:52:06;;;;;;;2.63;0.90;;;28.20;52.30;;;;;;5011545;28;20743;-77
2022/06/01 10:54:41;;;;;;;1.90;0.90;;;28.80;52.00;;;;;;5011498;28;21114;-78
2022/06/01 10:57:13;;;;;;;2.70;0.90;;;29.20;51.60;;;;;;5011662;28;20576;-78
2022/06/01 10:59:39;;;;;;;1.60;0.83;;;29.30;50.40;;;;;;4977125;28;20604;-77
2022/06/01 11:02:33;;;;;;;1.50;0.77;;;29.30;49.80;;;;;;5011325;28;20623;-77
2022/06/01 11:05:25;;;;;;;2.07;0.73;;;29.10;49.20;;;;;;4991819;28;20625;-76
2022/06/01 11:08:14;;;;;;;2.23;0.80;;;29.00;49.10;;;;;;4991987;28;20593;-76
2022/06/01 11:10:48;;;;;;;1.93;0.70;;;28.70;48.80;;;;;;4990497;28;20695;-76
2022/06/01 11:13:19;;;;;;;2.33;1.00;;;28.40;48.60;;;;;;4991893;28;20678;-75
2022/06/01 11:16:06;;;;;;;1.73;0.80;;;28.00;49.00;;;;;;4991685;28;20982;-76
2022/06/01 11:18:49;;;;;;;2.07;0.80;;;27.80;49.80;;;;;;4974244;28;20586;-76
2022/06/01 11:21:44;;;;;;;3.10;1.10;;;27.80;50.00;;;;;;4990809;28;20632;-76
2022/06/01 11:24:36;;;;;;;3.10;1.20;;;27.80;50.10;;;;;;5001967;28;20636;-81
2022/06/01 11:27:21;;;;;;;2.10;1.07;;;27.80;49.90;;;;;;5008786;28;20605;-76
2022/06/01 11:30:19;;;;;;;1.90;1.00;;;27.70;50.00;;;;;;5010243;28;20593;-76
2022/06/01 11:33:10;;;;;;;2.57;1.10;;;27.50;49.50;;;;;;5007567;28;20684;-76
2022/06/01 11:35:47;;;;;;;2.97;0.90;;;27.20;49.30;;;;;;5001971;28;20600;-76
2022/06/01 11:38:22;;;;;;;2.30;0.90;;;26.90;49.50;;;;;;5024083;28;20691;-77
2022/06/01 11:40:57;;;;;;;1.57;1.00;;;26.80;50.00;;;;;;4995490;28;20604;-75
2022/06/01 11:43:55;;;;;;;3.60;1.57;;;26.90;51.30;;;;;;5012914;28;20678;-75
2022/06/01 11:46:37;;;;;;;2.63;0.97;;;27.20;51.10;;;;;;4982543;28;20601;-76
2022/06/01 11:49:24;;;;;;;3.67;0.70;;;27.60;52.40;;;;;;5024512;28;20585;-76
2022/06/01 11:51:50;;;;;;;5.10;2.70;;;28.00;52.60;;;;;;5013731;28;23028;-76
2022/06/01 11:54:33;;;;;;;4.07;2.70;;;28.50;52.60;;;;;;5012239;28;20632;-77
2022/06/01 11:57:03;;;;;;;2.70;1.20;;;28.80;51.00;;;;;;5008875;28;20242;-77
2022/06/01 11:59:44;;;;;;;2.00;0.90;;;29.10;50.90;;;;;;5002836;28;20581;-76
2022/06/01 12:02:43;;;;;;;3.20;0.90;;;29.20;50.10;;;;;;5034158;28;20896;-78
2022/06/01 12:05:21;;;;;;;1.53;0.73;;;29.20;49.10;;;;;;5014182;28;20624;-78
2022/06/01 12:07:52;;;;;;;3.23;0.70;;;29.20;49.20;;;;;;4998320;28;20577;-77
2022/06/01 12:10:46;;;;;;;1.90;0.90;;;29.00;48.70;;;;;;5014191;28;20720;-78
2022/06/01 12:13:50;;;;;;;3.00;0.90;;;28.60;48.00;;;;;;5006036;28;20682;-77
2022/06/01 12:16:18;;;;;;;2.80;0.80;;;28.10;48.00;;;;;;5014738;28;20589;-78
2022/06/01 12:19:11;;;;;;;2.17;0.90;;;27.70;47.70;;;;;;5014620;28;20573;-77
2022/06/01 12:21:55;;;;;;;2.73;0.90;;;27.30;47.00;;;;;;5010957;28;20615;-77
2022/06/01 12:30:04;;;;;;;4.30;1.23;;;27.00;48.70;;;;;;4995859;28;20648;-78
2022/06/01 12:32:50;;;;;;;2.00;0.80;;;27.00;49.10;;;;;;4996281;28;20588;-76
2022/06/01 12:35:19;;;;;;;1.50;0.70;;;27.00;49.00;;;;;;4996264;28;20667;-77
2022/06/01 12:37:50;;;;;;;2.80;0.63;;;27.10;49.40;;;;;;4996867;28;20622;-77
2022/06/01 12:40:20;;;;;;;5.10;0.90;;;27.00;48.40;;;;;;4996028;28;20594;-77
2022/06/01 12:42:56;;;;;;;2.10;0.80;;;26.90;48.50;;;;;;5013969;28;20604;-77
2022/06/01 12:45:28;;;;;;;3.67;1.67;;;26.80;48.80;;;;;;4997233;28;20608;-76
2022/06/01 12:47:59;;;;;;;5.77;0.93;;;26.70;48.20;;;;;;5015395;28;20581;-77
2022/06/01 12:50:27;;;;;;;2.60;1.00;;;26.40;48.10;;;;;;5017070;28;20647;-78
2022/06/01 12:53:21;;;;;;;2.47;0.70;;;26.20;48.20;;;;;;5019436;28;20597;-76
2022/06/01 12:56:02;;;;;;;3.00;0.90;;;26.00;48.30;;;;;;5007886;28;20573;-75
2022/06/01 12:58:28;;;;;;;3.17;0.93;;;25.80;48.60;;;;;;5006840;28;20585;-76
2022/06/01 13:00:56;;;;;;;2.13;1.10;;;25.70;48.70;;;;;;5012852;28;20575;-76
2022/06/01 13:03:24;;;;;;;2.50;1.07;;;25.60;48.40;;;;;;5014146;28;20603;-76
2022/06/01 13:05:53;;;;;;;1.80;1.03;;;25.50;49.00;;;;;;5014466;28;20577;-77
2022/06/01 13:08:29;;;;;;;3.10;0.90;;;25.50;49.10;;;;;;5011144;28;20702;-73
2022/06/01 13:10:55;;;;;;;4.50;1.10;;;25.40;49.10;;;;;;5006488;28;21207;-76
2022/06/01 13:13:27;;;;;;;2.00;0.70;;;25.40;49.30;;;;;;5000030;28;20637;-74
2022/06/01 13:16:04;;;;;;;1.40;0.70;;;25.30;49.50;;;;;;5002637;28;20723;-76
2022/06/01 13:18:38;;;;;;;3.83;1.00;;;25.30;49.10;;;;;;5009868;28;20612;-78
2022/06/01 13:21:06;;;;;;;1.87;1.00;;;25.20;49.10;;;;;;4997613;28;20592;-78
2022/06/01 13:23:45;;;;;;;1.50;0.70;;;25.10;48.80;;;;;;5011228;28;20682;-76
2022/06/01 13:26:18;;;;;;;2.03;1.07;;;24.90;48.80;;;;;;5011615;28;20976;-76
2022/06/01 13:28:46;;;;;;;2.93;1.00;;;24.80;49.10;;;;;;5013435;28;20978;-76
2022/06/01 13:31:12;;;;;;;2.97;1.10;;;24.70;49.70;;;;;;5012741;28;20723;-77
2022/06/01 13:33:43;;;;;;;3.93;1.10;;;24.50;49.10;;;;;;5007143;28;20663;-77
2022/06/01 13:36:29;;;;;;;2.10;1.10;;;24.30;49.10;;;;;;5000035;28;20939;-76
2022/06/01 13:39:05;;;;;;;4.80;1.53;;;24.20;49.20;;;;;;4976253;28;20737;-76
2022/06/01 13:41:41;;;;;;;2.67;1.47;;;24.10;49.60;;;;;;4991861;28;20600;-77
2022/06/01 13:44:11;;;;;;;2.37;1.03;;;24.00;49.50;;;;;;5003418;28;20616;-77